sensor_id;sensor_type;location;lat;lon;timestamp;temperature;humidity
17341;DHT22;8788;49.930;8.660;2023-05-19T00:01:28;12.20;90.90
17341;DHT22;8788;49.930;8.660;2023-05-19T00:03:57;12.20;91.00
17341;DHT22;8788;49.930;8.660;2023-05-19T00:06:28;12.10;91.10
17341;DHT22;8788;49.930;8.660;2023-05-19T00:08:57;12.10;91.10
17341;DHT22;8788;49.930;8.660;2023-05-19T00:11:25;12.10;91.30
17341;DHT22;8788;49.930;8.660;2023-05-19T00:13:53;12.10;91.30
17341;DHT22;8788;49.930;8.660;2023-05-19T00:16:21;12.20;91.30
17341;DHT22;8788;49.930;8.660;2023-05-19T00:18:49;12.20;91.40
17341;DHT22;8788;49.930;8.660;2023-05-19T00:21:18;12.20;91.40
17341;DHT22;8788;49.930;8.660;2023-05-19T00:23:45;12.10;91.40
17341;DHT22;8788;49.930;8.660;2023-05-19T00:26:12;12.00;91.60
17341;DHT22;8788;49.930;8.660;2023-05-19T00:28:50;11.90;91.70
17341;DHT22;8788;49.930;8.660;2023-05-19T00:31:17;11.90;91.80
17341;DHT22;8788;49.930;8.660;2023-05-19T00:33:44;11.90;91.90
17341;DHT22;8788;49.930;8.660;2023-05-19T00:36:12;11.90;91.90
17341;DHT22;8788;49.930;8.660;2023-05-19T00:38:39;11.90;92.00
17341;DHT22;8788;49.930;8.660;2023-05-19T00:41:06;11.90;92.10
17341;DHT22;8788;49.930;8.660;2023-05-19T00:43:33;11.90;92.20
17341;DHT22;8788;49.930;8.660;2023-05-19T00:46:01;11.90;92.30
17341;DHT22;8788;49.930;8.660;2023-05-19T00:48:29;11.90;92.30
17341;DHT22;8788;49.930;8.660;2023-05-19T00:50:57;11.90;92.30
17341;DHT22;8788;49.930;8.660;2023-05-19T00:53:31;11.80;92.40
17341;DHT22;8788;49.930;8.660;2023-05-19T00:55:59;11.80;92.50
17341;DHT22;8788;49.930;8.660;2023-05-19T00:58:26;11.80;92.60
17341;DHT22;8788;49.930;8.660;2023-05-19T01:00:56;11.80;92.70
17341;DHT22;8788;49.930;8.660;2023-05-19T01:03:28;11.80;92.70
17341;DHT22;8788;49.930;8.660;2023-05-19T01:05:57;11.80;92.70
17341;DHT22;8788;49.930;8.660;2023-05-19T01:08:26;11.80;92.80
17341;DHT22;8788;49.930;8.660;2023-05-19T01:10:58;11.80;92.80
17341;DHT22;8788;49.930;8.660;2023-05-19T01:13:25;11.70;93.00
17341;DHT22;8788;49.930;8.660;2023-05-19T01:16:00;11.70;93.00
17341;DHT22;8788;49.930;8.660;2023-05-19T01:18:43;11.70;93.20
17341;DHT22;8788;49.930;8.660;2023-05-19T01:21:42;11.70;93.20
17341;DHT22;8788;49.930;8.660;2023-05-19T01:24:51;11.60;93.30
17341;DHT22;8788;49.930;8.660;2023-05-19T01:27:52;11.60;93.40
17341;DHT22;8788;49.930;8.660;2023-05-19T01:30:30;11.60;93.40
17341;DHT22;8788;49.930;8.660;2023-05-19T01:33:01;11.60;93.40
17341;DHT22;8788;49.930;8.660;2023-05-19T01:35:30;11.50;93.50
17341;DHT22;8788;49.930;8.660;2023-05-19T01:37:59;11.50;93.60
17341;DHT22;8788;49.930;8.660;2023-05-19T01:40:28;11.40;93.60
17341;DHT22;8788;49.930;8.660;2023-05-19T01:42:59;11.40;93.80
17341;DHT22;8788;49.930;8.660;2023-05-19T01:45:29;11.40;93.80
17341;DHT22;8788;49.930;8.660;2023-05-19T01:47:59;11.40;93.90
17341;DHT22;8788;49.930;8.660;2023-05-19T01:50:27;11.30;94.00
17341;DHT22;8788;49.930;8.660;2023-05-19T01:52:54;11.40;94.10
17341;DHT22;8788;49.930;8.660;2023-05-19T01:55:21;11.40;94.10
17341;DHT22;8788;49.930;8.660;2023-05-19T01:57:58;11.40;94.20
17341;DHT22;8788;49.930;8.660;2023-05-19T02:00:35;11.50;94.20
17341;DHT22;8788;49.930;8.660;2023-05-19T02:03:11;11.50;94.10
17341;DHT22;8788;49.930;8.660;2023-05-19T02:05:51;11.50;94.20
17341;DHT22;8788;49.930;8.660;2023-05-19T02:08:25;11.50;94.20
17341;DHT22;8788;49.930;8.660;2023-05-19T02:10:58;11.50;94.20
17341;DHT22;8788;49.930;8.660;2023-05-19T02:13:30;11.40;94.30
17341;DHT22;8788;49.930;8.660;2023-05-19T02:16:03;11.30;94.50
17341;DHT22;8788;49.930;8.660;2023-05-19T02:18:31;11.30;94.60
17341;DHT22;8788;49.930;8.660;2023-05-19T02:21:00;11.20;94.70
17341;DHT22;8788;49.930;8.660;2023-05-19T02:23:27;11.30;94.70
17341;DHT22;8788;49.930;8.660;2023-05-19T02:25:56;11.20;94.80
17341;DHT22;8788;49.930;8.660;2023-05-19T02:28:24;11.20;94.90
17341;DHT22;8788;49.930;8.660;2023-05-19T02:30:53;11.20;95.00
17341;DHT22;8788;49.930;8.660;2023-05-19T02:33:22;11.20;95.00
17341;DHT22;8788;49.930;8.660;2023-05-19T02:35:52;11.20;95.00
17341;DHT22;8788;49.930;8.660;2023-05-19T02:38:19;11.20;95.00
17341;DHT22;8788;49.930;8.660;2023-05-19T02:40:46;11.10;95.20
17341;DHT22;8788;49.930;8.660;2023-05-19T02:43:13;11.10;95.30
17341;DHT22;8788;49.930;8.660;2023-05-19T02:45:40;11.10;95.40
17341;DHT22;8788;49.930;8.660;2023-05-19T02:48:07;11.00;95.40
17341;DHT22;8788;49.930;8.660;2023-05-19T02:50:36;11.00;95.50
17341;DHT22;8788;49.930;8.660;2023-05-19T02:53:03;10.90;95.60
17341;DHT22;8788;49.930;8.660;2023-05-19T02:55:30;10.80;96.10
17341;DHT22;8788;49.930;8.660;2023-05-19T02:57:57;10.80;95.90
17341;DHT22;8788;49.930;8.660;2023-05-19T03:00:24;10.80;96.00
17341;DHT22;8788;49.930;8.660;2023-05-19T03:02:51;10.80;96.00
17341;DHT22;8788;49.930;8.660;2023-05-19T03:05:18;10.80;96.10
17341;DHT22;8788;49.930;8.660;2023-05-19T03:07:47;10.90;96.10
17341;DHT22;8788;49.930;8.660;2023-05-19T03:10:14;11.00;96.10
17341;DHT22;8788;49.930;8.660;2023-05-19T03:12:41;11.00;96.10
17341;DHT22;8788;49.930;8.660;2023-05-19T03:15:09;11.00;96.00
17341;DHT22;8788;49.930;8.660;2023-05-19T03:17:37;11.00;96.00
17341;DHT22;8788;49.930;8.660;2023-05-19T03:20:06;11.00;96.10
17341;DHT22;8788;49.930;8.660;2023-05-19T03:22:35;11.00;96.10
17341;DHT22;8788;49.930;8.660;2023-05-19T03:25:04;11.00;96.10
17341;DHT22;8788;49.930;8.660;2023-05-19T03:27:31;11.00;96.10
17341;DHT22;8788;49.930;8.660;2023-05-19T03:29:58;11.00;96.30
17341;DHT22;8788;49.930;8.660;2023-05-19T03:32:26;11.10;96.30
17341;DHT22;8788;49.930;8.660;2023-05-19T03:34:53;11.00;96.30
17341;DHT22;8788;49.930;8.660;2023-05-19T03:37:20;11.00;96.40
17341;DHT22;8788;49.930;8.660;2023-05-19T03:39:47;11.00;96.50
17341;DHT22;8788;49.930;8.660;2023-05-19T03:42:15;11.00;96.60
17341;DHT22;8788;49.930;8.660;2023-05-19T03:44:43;11.00;96.60
17341;DHT22;8788;49.930;8.660;2023-05-19T03:47:11;11.00;96.70
17341;DHT22;8788;49.930;8.660;2023-05-19T03:49:57;11.00;96.80
17341;DHT22;8788;49.930;8.660;2023-05-19T03:52:49;11.00;96.70
17341;DHT22;8788;49.930;8.660;2023-05-19T03:55:26;11.00;96.70
17341;DHT22;8788;49.930;8.660;2023-05-19T03:57:56;11.00;96.80
17341;DHT22;8788;49.930;8.660;2023-05-19T04:00:23;11.00;96.90
17341;DHT22;8788;49.930;8.660;2023-05-19T04:02:50;11.00;97.00
17341;DHT22;8788;49.930;8.660;2023-05-19T04:05:17;11.00;97.00
17341;DHT22;8788;49.930;8.660;2023-05-19T04:07:44;11.00;97.00
17341;DHT22;8788;49.930;8.660;2023-05-19T04:10:12;11.00;97.00
17341;DHT22;8788;49.930;8.660;2023-05-19T04:12:39;11.00;97.00
17341;DHT22;8788;49.930;8.660;2023-05-19T04:15:09;11.00;97.10
17341;DHT22;8788;49.930;8.660;2023-05-19T04:17:37;11.00;97.20
17341;DHT22;8788;49.930;8.660;2023-05-19T04:20:05;11.00;97.30
17341;DHT22;8788;49.930;8.660;2023-05-19T04:22:32;11.00;97.30
17341;DHT22;8788;49.930;8.660;2023-05-19T04:25:00;11.00;97.40
17341;DHT22;8788;49.930;8.660;2023-05-19T04:27:28;11.00;97.50
17341;DHT22;8788;49.930;8.660;2023-05-19T04:29:57;11.10;97.60
17341;DHT22;8788;49.930;8.660;2023-05-19T04:32:26;11.10;97.60
17341;DHT22;8788;49.930;8.660;2023-05-19T04:34:55;11.10;97.70
17341;DHT22;8788;49.930;8.660;2023-05-19T04:37:26;11.00;97.80
17341;DHT22;8788;49.930;8.660;2023-05-19T04:39:54;11.10;97.90
17341;DHT22;8788;49.930;8.660;2023-05-19T04:42:24;11.10;98.00
17341;DHT22;8788;49.930;8.660;2023-05-19T04:44:55;11.10;98.10
17341;DHT22;8788;49.930;8.660;2023-05-19T04:47:27;11.10;98.10
17341;DHT22;8788;49.930;8.660;2023-05-19T04:49:55;11.10;98.30
17341;DHT22;8788;49.930;8.660;2023-05-19T04:52:22;11.20;98.30
17341;DHT22;8788;49.930;8.660;2023-05-19T04:54:50;11.20;98.30
17341;DHT22;8788;49.930;8.660;2023-05-19T04:57:17;11.20;98.40
17341;DHT22;8788;49.930;8.660;2023-05-19T04:59:44;11.20;98.40
17341;DHT22;8788;49.930;8.660;2023-05-19T05:02:11;11.20;98.50
17341;DHT22;8788;49.930;8.660;2023-05-19T05:04:40;11.20;98.60
17341;DHT22;8788;49.930;8.660;2023-05-19T05:07:09;11.20;98.80
17341;DHT22;8788;49.930;8.660;2023-05-19T05:09:37;11.20;98.90
17341;DHT22;8788;49.930;8.660;2023-05-19T05:12:05;11.20;98.90
17341;DHT22;8788;49.930;8.660;2023-05-19T05:14:35;11.20;99.00
17341;DHT22;8788;49.930;8.660;2023-05-19T05:17:03;11.20;99.20
17341;DHT22;8788;49.930;8.660;2023-05-19T05:19:31;11.30;99.20
17341;DHT22;8788;49.930;8.660;2023-05-19T05:22:00;11.40;99.20
17341;DHT22;8788;49.930;8.660;2023-05-19T05:24:27;11.30;99.30
17341;DHT22;8788;49.930;8.660;2023-05-19T05:26:58;11.30;99.30
17341;DHT22;8788;49.930;8.660;2023-05-19T05:29:26;11.30;99.50
17341;DHT22;8788;49.930;8.660;2023-05-19T05:31:53;11.40;99.60
17341;DHT22;8788;49.930;8.660;2023-05-19T05:34:21;11.50;99.70
17341;DHT22;8788;49.930;8.660;2023-05-19T05:36:49;11.60;99.80
17341;DHT22;8788;49.930;8.660;2023-05-19T05:39:18;11.70;99.70
17341;DHT22;8788;49.930;8.660;2023-05-19T05:41:46;11.90;99.80
17341;DHT22;8788;49.930;8.660;2023-05-19T05:44:13;12.00;99.70
17341;DHT22;8788;49.930;8.660;2023-05-19T05:46:43;12.10;99.70
17341;DHT22;8788;49.930;8.660;2023-05-19T05:49:10;12.20;99.70
17341;DHT22;8788;49.930;8.660;2023-05-19T05:51:41;12.30;99.70
17341;DHT22;8788;49.930;8.660;2023-05-19T05:54:11;12.30;99.70
17341;DHT22;8788;49.930;8.660;2023-05-19T05:56:45;12.40;99.70
17341;DHT22;8788;49.930;8.660;2023-05-19T05:59:13;12.60;99.60
17341;DHT22;8788;49.930;8.660;2023-05-19T06:01:41;12.60;99.40
17341;DHT22;8788;49.930;8.660;2023-05-19T06:04:09;12.70;99.40
17341;DHT22;8788;49.930;8.660;2023-05-19T06:06:36;12.70;99.40
17341;DHT22;8788;49.930;8.660;2023-05-19T06:09:04;12.80;99.40
17341;DHT22;8788;49.930;8.660;2023-05-19T06:11:32;12.80;99.30
17341;DHT22;8788;49.930;8.660;2023-05-19T06:14:00;12.80;99.30
17341;DHT22;8788;49.930;8.660;2023-05-19T06:16:50;12.90;99.40
17341;DHT22;8788;49.930;8.660;2023-05-19T06:19:18;12.90;99.30
17341;DHT22;8788;49.930;8.660;2023-05-19T06:21:45;13.00;99.20
17341;DHT22;8788;49.930;8.660;2023-05-19T06:24:13;13.00;99.10
17341;DHT22;8788;49.930;8.660;2023-05-19T06:26:41;13.10;99.00
17341;DHT22;8788;49.930;8.660;2023-05-19T06:29:09;13.10;99.10
17341;DHT22;8788;49.930;8.660;2023-05-19T06:31:36;13.10;99.00
17341;DHT22;8788;49.930;8.660;2023-05-19T06:34:12;13.20;99.00
17341;DHT22;8788;49.930;8.660;2023-05-19T06:36:42;13.20;98.90
17341;DHT22;8788;49.930;8.660;2023-05-19T06:39:10;13.20;99.00
17341;DHT22;8788;49.930;8.660;2023-05-19T06:41:37;13.30;99.00
17341;DHT22;8788;49.930;8.660;2023-05-19T06:44:06;13.30;98.90
17341;DHT22;8788;49.930;8.660;2023-05-19T06:46:35;13.40;98.80
17341;DHT22;8788;49.930;8.660;2023-05-19T06:49:03;13.40;98.90
17341;DHT22;8788;49.930;8.660;2023-05-19T06:51:34;13.60;98.90
17341;DHT22;8788;49.930;8.660;2023-05-19T06:54:01;13.70;98.90
17341;DHT22;8788;49.930;8.660;2023-05-19T06:56:28;13.80;98.70
17341;DHT22;8788;49.930;8.660;2023-05-19T06:58:55;13.90;98.90
17341;DHT22;8788;49.930;8.660;2023-05-19T07:01:28;14.00;98.70
17341;DHT22;8788;49.930;8.660;2023-05-19T07:03:57;14.10;98.60
17341;DHT22;8788;49.930;8.660;2023-05-19T07:06:24;14.20;98.60
17341;DHT22;8788;49.930;8.660;2023-05-19T07:08:51;14.30;98.50
17341;DHT22;8788;49.930;8.660;2023-05-19T07:11:19;14.30;98.20
17341;DHT22;8788;49.930;8.660;2023-05-19T07:13:47;14.30;98.00
17341;DHT22;8788;49.930;8.660;2023-05-19T07:16:20;14.20;98.00
17341;DHT22;8788;49.930;8.660;2023-05-19T07:18:47;14.30;98.20
17341;DHT22;8788;49.930;8.660;2023-05-19T07:21:15;14.50;98.20
17341;DHT22;8788;49.930;8.660;2023-05-19T07:23:42;14.60;98.10
17341;DHT22;8788;49.930;8.660;2023-05-19T07:26:10;14.80;98.20
17341;DHT22;8788;49.930;8.660;2023-05-19T07:28:37;15.00;98.20
17341;DHT22;8788;49.930;8.660;2023-05-19T07:31:04;15.20;97.90
17341;DHT22;8788;49.930;8.660;2023-05-19T07:33:31;15.20;97.60
17341;DHT22;8788;49.930;8.660;2023-05-19T07:35:58;15.20;97.60
17341;DHT22;8788;49.930;8.660;2023-05-19T07:38:27;15.40;97.80
17341;DHT22;8788;49.930;8.660;2023-05-19T07:40:56;15.60;97.80
17341;DHT22;8788;49.930;8.660;2023-05-19T07:43:23;15.80;97.50
17341;DHT22;8788;49.930;8.660;2023-05-19T07:45:50;15.90;97.20
17341;DHT22;8788;49.930;8.660;2023-05-19T07:48:18;16.00;97.00
17341;DHT22;8788;49.930;8.660;2023-05-19T07:50:47;16.00;96.90
17341;DHT22;8788;49.930;8.660;2023-05-19T07:53:14;16.10;96.70
17341;DHT22;8788;49.930;8.660;2023-05-19T07:55:42;16.10;96.30
17341;DHT22;8788;49.930;8.660;2023-05-19T07:58:09;16.00;96.20
17341;DHT22;8788;49.930;8.660;2023-05-19T08:00:37;16.00;96.00
17341;DHT22;8788;49.930;8.660;2023-05-19T08:03:04;16.00;96.10
17341;DHT22;8788;49.930;8.660;2023-05-19T08:05:33;16.10;96.10
17341;DHT22;8788;49.930;8.660;2023-05-19T08:08:00;16.30;96.00
17341;DHT22;8788;49.930;8.660;2023-05-19T08:10:28;16.40;95.70
17341;DHT22;8788;49.930;8.660;2023-05-19T08:12:56;16.40;95.50
17341;DHT22;8788;49.930;8.660;2023-05-19T08:15:24;16.50;95.40
17341;DHT22;8788;49.930;8.660;2023-05-19T08:17:51;16.60;95.30
17341;DHT22;8788;49.930;8.660;2023-05-19T08:20:18;16.70;95.20
17341;DHT22;8788;49.930;8.660;2023-05-19T08:22:47;16.80;95.20
17341;DHT22;8788;49.930;8.660;2023-05-19T08:25:14;16.90;95.10
17341;DHT22;8788;49.930;8.660;2023-05-19T08:27:41;17.00;94.80
17341;DHT22;8788;49.930;8.660;2023-05-19T08:30:11;17.10;94.60
17341;DHT22;8788;49.930;8.660;2023-05-19T08:32:38;17.20;94.60
17341;DHT22;8788;49.930;8.660;2023-05-19T08:35:05;17.20;94.40
17341;DHT22;8788;49.930;8.660;2023-05-19T08:37:33;17.40;94.60
17341;DHT22;8788;49.930;8.660;2023-05-19T08:40:01;17.50;94.50
17341;DHT22;8788;49.930;8.660;2023-05-19T08:42:30;17.70;94.20
17341;DHT22;8788;49.930;8.660;2023-05-19T08:44:58;17.70;93.90
17341;DHT22;8788;49.930;8.660;2023-05-19T08:47:26;17.80;93.80
17341;DHT22;8788;49.930;8.660;2023-05-19T08:50:02;17.80;93.60
17341;DHT22;8788;49.930;8.660;2023-05-19T08:52:37;17.90;93.10
17341;DHT22;8788;49.930;8.660;2023-05-19T08:55:16;17.90;92.90
17341;DHT22;8788;49.930;8.660;2023-05-19T08:57:47;17.80;92.50
17341;DHT22;8788;49.930;8.660;2023-05-19T09:00:15;17.90;92.40
17341;DHT22;8788;49.930;8.660;2023-05-19T09:02:46;18.00;92.00
17341;DHT22;8788;49.930;8.660;2023-05-19T09:05:15;17.90;91.40
17341;DHT22;8788;49.930;8.660;2023-05-19T09:07:43;17.90;91.30
17341;DHT22;8788;49.930;8.660;2023-05-19T09:10:10;18.10;91.50
17341;DHT22;8788;49.930;8.660;2023-05-19T09:12:41;18.20;91.50
17341;DHT22;8788;49.930;8.660;2023-05-19T09:15:10;18.40;91.50
17341;DHT22;8788;49.930;8.660;2023-05-19T09:17:37;18.50;91.30
17341;DHT22;8788;49.930;8.660;2023-05-19T09:20:07;18.70;90.90
17341;DHT22;8788;49.930;8.660;2023-05-19T09:22:43;18.70;90.40
17341;DHT22;8788;49.930;8.660;2023-05-19T09:25:18;18.90;90.40
17341;DHT22;8788;49.930;8.660;2023-05-19T09:27:46;18.90;90.60
17341;DHT22;8788;49.930;8.660;2023-05-19T09:30:14;19.00;90.70
17341;DHT22;8788;49.930;8.660;2023-05-19T09:32:42;19.00;90.10
17341;DHT22;8788;49.930;8.660;2023-05-19T09:35:10;19.00;89.70
17341;DHT22;8788;49.930;8.660;2023-05-19T09:37:41;19.00;88.70
17341;DHT22;8788;49.930;8.660;2023-05-19T09:40:09;19.10;89.20
17341;DHT22;8788;49.930;8.660;2023-05-19T09:42:37;19.20;88.70
17341;DHT22;8788;49.930;8.660;2023-05-19T09:45:05;19.30;88.50
17341;DHT22;8788;49.930;8.660;2023-05-19T09:47:33;19.30;87.60
17341;DHT22;8788;49.930;8.660;2023-05-19T09:50:01;19.40;86.70
17341;DHT22;8788;49.930;8.660;2023-05-19T09:52:30;19.50;86.60
17341;DHT22;8788;49.930;8.660;2023-05-19T09:54:57;19.70;87.10
17341;DHT22;8788;49.930;8.660;2023-05-19T09:57:25;19.90;87.60
17341;DHT22;8788;49.930;8.660;2023-05-19T09:59:54;20.10;87.70
17341;DHT22;8788;49.930;8.660;2023-05-19T10:02:23;20.30;86.30
17341;DHT22;8788;49.930;8.660;2023-05-19T10:04:52;20.30;85.30
17341;DHT22;8788;49.930;8.660;2023-05-19T10:07:20;20.40;85.60
17341;DHT22;8788;49.930;8.660;2023-05-19T10:09:51;20.50;86.10
17341;DHT22;8788;49.930;8.660;2023-05-19T10:12:20;20.70;85.30
17341;DHT22;8788;49.930;8.660;2023-05-19T10:14:47;20.70;84.80
17341;DHT22;8788;49.930;8.660;2023-05-19T10:17:17;20.70;85.00
17341;DHT22;8788;49.930;8.660;2023-05-19T10:19:45;20.80;85.00
17341;DHT22;8788;49.930;8.660;2023-05-19T10:22:13;20.80;83.80
17341;DHT22;8788;49.930;8.660;2023-05-19T10:24:40;20.70;82.90
17341;DHT22;8788;49.930;8.660;2023-05-19T10:27:10;20.60;82.90
17341;DHT22;8788;49.930;8.660;2023-05-19T10:29:44;20.50;82.90
17341;DHT22;8788;49.930;8.660;2023-05-19T10:32:15;20.30;82.50
17341;DHT22;8788;49.930;8.660;2023-05-19T10:35:23;20.20;82.20
17341;DHT22;8788;49.930;8.660;2023-05-19T10:38:01;20.00;82.60
17341;DHT22;8788;49.930;8.660;2023-05-19T10:40:33;20.00;83.00
17341;DHT22;8788;49.930;8.660;2023-05-19T10:43:14;19.90;84.20
17341;DHT22;8788;49.930;8.660;2023-05-19T10:45:49;19.90;83.40
17341;DHT22;8788;49.930;8.660;2023-05-19T10:48:19;19.90;83.90
17341;DHT22;8788;49.930;8.660;2023-05-19T10:50:47;19.80;84.10
17341;DHT22;8788;49.930;8.660;2023-05-19T10:53:14;19.90;85.00
17341;DHT22;8788;49.930;8.660;2023-05-19T10:55:49;20.10;85.20
17341;DHT22;8788;49.930;8.660;2023-05-19T10:58:49;20.30;85.40
17341;DHT22;8788;49.930;8.660;2023-05-19T11:01:17;20.50;84.70
17341;DHT22;8788;49.930;8.660;2023-05-19T11:03:46;20.60;84.90
17341;DHT22;8788;49.930;8.660;2023-05-19T11:06:24;20.70;84.90
17341;DHT22;8788;49.930;8.660;2023-05-19T11:08:53;20.80;84.00
17341;DHT22;8788;49.930;8.660;2023-05-19T11:11:21;20.80;83.80
17341;DHT22;8788;49.930;8.660;2023-05-19T11:13:51;20.90;83.10
17341;DHT22;8788;49.930;8.660;2023-05-19T11:16:26;21.00;82.70
17341;DHT22;8788;49.930;8.660;2023-05-19T11:18:54;21.00;81.60
17341;DHT22;8788;49.930;8.660;2023-05-19T11:21:21;20.80;80.90
17341;DHT22;8788;49.930;8.660;2023-05-19T11:23:50;20.90;81.00
17341;DHT22;8788;49.930;8.660;2023-05-19T11:26:41;21.00;81.10
17341;DHT22;8788;49.930;8.660;2023-05-19T11:29:10;21.40;81.10
17341;DHT22;8788;49.930;8.660;2023-05-19T11:31:38;21.60;80.40
17341;DHT22;8788;49.930;8.660;2023-05-19T11:34:05;21.50;79.90
17341;DHT22;8788;49.930;8.660;2023-05-19T11:36:35;21.60;80.50
17341;DHT22;8788;49.930;8.660;2023-05-19T11:39:04;21.70;79.40
17341;DHT22;8788;49.930;8.660;2023-05-19T11:41:32;21.80;80.00
17341;DHT22;8788;49.930;8.660;2023-05-19T11:44:10;22.00;79.20
17341;DHT22;8788;49.930;8.660;2023-05-19T11:46:37;21.90;78.70
17341;DHT22;8788;49.930;8.660;2023-05-19T11:49:04;21.90;78.70
17341;DHT22;8788;49.930;8.660;2023-05-19T11:51:32;22.00;78.40
17341;DHT22;8788;49.930;8.660;2023-05-19T11:53:59;22.00;78.50
17341;DHT22;8788;49.930;8.660;2023-05-19T11:56:26;22.00;78.50
17341;DHT22;8788;49.930;8.660;2023-05-19T11:58:53;22.30;78.60
17341;DHT22;8788;49.930;8.660;2023-05-19T12:01:24;22.50;78.20
17341;DHT22;8788;49.930;8.660;2023-05-19T12:03:51;22.50;77.20
17341;DHT22;8788;49.930;8.660;2023-05-19T12:06:18;22.50;76.80
17341;DHT22;8788;49.930;8.660;2023-05-19T12:08:46;22.50;76.90
17341;DHT22;8788;49.930;8.660;2023-05-19T12:11:13;22.70;77.30
17341;DHT22;8788;49.930;8.660;2023-05-19T12:13:40;22.80;76.60
17341;DHT22;8788;49.930;8.660;2023-05-19T12:16:07;22.70;76.20
17341;DHT22;8788;49.930;8.660;2023-05-19T12:18:37;22.60;75.80
17341;DHT22;8788;49.930;8.660;2023-05-19T12:21:05;22.60;75.70
17341;DHT22;8788;49.930;8.660;2023-05-19T12:23:32;22.50;75.00
17341;DHT22;8788;49.930;8.660;2023-05-19T12:26:00;22.40;75.10
17341;DHT22;8788;49.930;8.660;2023-05-19T12:28:29;22.30;75.60
17341;DHT22;8788;49.930;8.660;2023-05-19T12:30:56;22.30;75.60
17341;DHT22;8788;49.930;8.660;2023-05-19T12:33:24;22.20;75.00
17341;DHT22;8788;49.930;8.660;2023-05-19T12:35:53;22.10;75.30
17341;DHT22;8788;49.930;8.660;2023-05-19T12:38:21;22.10;75.10
17341;DHT22;8788;49.930;8.660;2023-05-19T12:40:49;22.10;74.80
17341;DHT22;8788;49.930;8.660;2023-05-19T12:43:19;22.00;74.90
17341;DHT22;8788;49.930;8.660;2023-05-19T12:45:47;22.00;75.10
17341;DHT22;8788;49.930;8.660;2023-05-19T12:48:14;22.00;75.40
17341;DHT22;8788;49.930;8.660;2023-05-19T12:50:42;22.10;76.00
17341;DHT22;8788;49.930;8.660;2023-05-19T12:53:11;22.20;76.30
17341;DHT22;8788;49.930;8.660;2023-05-19T12:55:40;22.30;76.40
17341;DHT22;8788;49.930;8.660;2023-05-19T12:58:08;22.30;76.10
17341;DHT22;8788;49.930;8.660;2023-05-19T13:00:39;22.30;75.80
17341;DHT22;8788;49.930;8.660;2023-05-19T13:03:07;22.40;75.70
17341;DHT22;8788;49.930;8.660;2023-05-19T13:05:42;22.50;75.60
17341;DHT22;8788;49.930;8.660;2023-05-19T13:08:11;22.70;75.80
17341;DHT22;8788;49.930;8.660;2023-05-19T13:10:40;22.70;75.80
17341;DHT22;8788;49.930;8.660;2023-05-19T13:13:08;22.70;75.40
17341;DHT22;8788;49.930;8.660;2023-05-19T13:15:37;22.70;75.30
17341;DHT22;8788;49.930;8.660;2023-05-19T13:18:07;22.70;75.80
17341;DHT22;8788;49.930;8.660;2023-05-19T13:20:35;22.70;75.70
17341;DHT22;8788;49.930;8.660;2023-05-19T13:23:03;22.60;75.70
17341;DHT22;8788;49.930;8.660;2023-05-19T13:25:32;22.60;75.70
17341;DHT22;8788;49.930;8.660;2023-05-19T13:28:01;22.50;76.00
17341;DHT22;8788;49.930;8.660;2023-05-19T13:30:30;22.60;76.50
17341;DHT22;8788;49.930;8.660;2023-05-19T13:32:57;22.60;76.70
17341;DHT22;8788;49.930;8.660;2023-05-19T13:35:24;22.70;76.90
17341;DHT22;8788;49.930;8.660;2023-05-19T13:37:51;22.60;76.40
17341;DHT22;8788;49.930;8.660;2023-05-19T13:40:18;22.50;76.60
17341;DHT22;8788;49.930;8.660;2023-05-19T13:42:47;22.40;76.50
17341;DHT22;8788;49.930;8.660;2023-05-19T13:45:14;22.40;76.90
17341;DHT22;8788;49.930;8.660;2023-05-19T13:47:41;22.20;75.90
17341;DHT22;8788;49.930;8.660;2023-05-19T13:50:08;22.00;75.80
17341;DHT22;8788;49.930;8.660;2023-05-19T13:52:35;21.70;76.10
17341;DHT22;8788;49.930;8.660;2023-05-19T13:55:03;21.60;76.70
17341;DHT22;8788;49.930;8.660;2023-05-19T13:57:30;21.70;77.50
17341;DHT22;8788;49.930;8.660;2023-05-19T13:59:59;21.90;78.00
17341;DHT22;8788;49.930;8.660;2023-05-19T14:02:26;22.00;77.70
17341;DHT22;8788;49.930;8.660;2023-05-19T14:04:54;22.20;77.70
17341;DHT22;8788;49.930;8.660;2023-05-19T14:07:21;22.40;77.30
17341;DHT22;8788;49.930;8.660;2023-05-19T14:09:48;22.50;76.60
17341;DHT22;8788;49.930;8.660;2023-05-19T14:12:17;22.40;76.00
17341;DHT22;8788;49.930;8.660;2023-05-19T14:14:44;22.50;76.70
17341;DHT22;8788;49.930;8.660;2023-05-19T14:17:14;22.70;76.70
17341;DHT22;8788;49.930;8.660;2023-05-19T14:19:41;22.90;76.00
17341;DHT22;8788;49.930;8.660;2023-05-19T14:22:08;23.10;76.00
17341;DHT22;8788;49.930;8.660;2023-05-19T14:24:35;23.30;76.10
17341;DHT22;8788;49.930;8.660;2023-05-19T14:27:02;23.50;76.60
17341;DHT22;8788;49.930;8.660;2023-05-19T14:29:29;23.70;76.70
17341;DHT22;8788;49.930;8.660;2023-05-19T14:31:56;23.90;76.40
17341;DHT22;8788;49.930;8.660;2023-05-19T14:34:25;24.10;75.10
17341;DHT22;8788;49.930;8.660;2023-05-19T14:36:52;24.40;75.80
17341;DHT22;8788;49.930;8.660;2023-05-19T14:39:19;24.60;74.70
17341;DHT22;8788;49.930;8.660;2023-05-19T14:41:46;24.50;74.70
17341;DHT22;8788;49.930;8.660;2023-05-19T14:44:14;24.60;74.60
17341;DHT22;8788;49.930;8.660;2023-05-19T14:46:41;24.50;74.00
17341;DHT22;8788;49.930;8.660;2023-05-19T14:49:08;24.30;73.60
17341;DHT22;8788;49.930;8.660;2023-05-19T14:51:36;24.00;72.50
17341;DHT22;8788;49.930;8.660;2023-05-19T14:54:03;23.60;72.50
17341;DHT22;8788;49.930;8.660;2023-05-19T14:56:30;23.50;73.30
17341;DHT22;8788;49.930;8.660;2023-05-19T14:58:57;23.60;73.50
17341;DHT22;8788;49.930;8.660;2023-05-19T15:01:24;23.70;73.50
17341;DHT22;8788;49.930;8.660;2023-05-19T15:03:51;23.70;73.70
17341;DHT22;8788;49.930;8.660;2023-05-19T15:06:18;23.90;74.00
17341;DHT22;8788;49.930;8.660;2023-05-19T15:08:47;24.20;73.60
17341;DHT22;8788;49.930;8.660;2023-05-19T15:11:14;24.40;73.20
17341;DHT22;8788;49.930;8.660;2023-05-19T15:13:41;24.50;72.80
17341;DHT22;8788;49.930;8.660;2023-05-19T15:16:08;24.50;72.00
17341;DHT22;8788;49.930;8.660;2023-05-19T15:18:35;24.60;71.70
17341;DHT22;8788;49.930;8.660;2023-05-19T15:21:03;24.70;71.30
17341;DHT22;8788;49.930;8.660;2023-05-19T15:23:30;24.50;70.60
17341;DHT22;8788;49.930;8.660;2023-05-19T15:25:58;24.30;70.40
17341;DHT22;8788;49.930;8.660;2023-05-19T15:28:25;24.00;70.10
17341;DHT22;8788;49.930;8.660;2023-05-19T15:30:52;23.80;70.50
17341;DHT22;8788;49.930;8.660;2023-05-19T15:33:19;23.50;70.40
17341;DHT22;8788;49.930;8.660;2023-05-19T15:35:47;23.30;70.80
17341;DHT22;8788;49.930;8.660;2023-05-19T15:38:16;23.00;70.80
17341;DHT22;8788;49.930;8.660;2023-05-19T15:40:44;22.80;70.30
17341;DHT22;8788;49.930;8.660;2023-05-19T15:43:12;22.50;70.70
17341;DHT22;8788;49.930;8.660;2023-05-19T15:45:39;22.40;71.00
17341;DHT22;8788;49.930;8.660;2023-05-19T15:48:06;22.30;71.50
17341;DHT22;8788;49.930;8.660;2023-05-19T15:50:34;22.30;72.30
17341;DHT22;8788;49.930;8.660;2023-05-19T15:53:01;22.40;72.20
17341;DHT22;8788;49.930;8.660;2023-05-19T15:55:28;22.30;72.40
17341;DHT22;8788;49.930;8.660;2023-05-19T15:57:55;22.20;71.90